Meerah North, Australia

3:41 PM AEDT on December 03, 2016 (GMT +1100)
Appletrees Narrabri | | Change Station

Elev 650 ft 30.13 °S, 149.57 °E | Updated 4 seconds ago

Scattered Clouds
Scattered Clouds
107.6 °F
Feels Like 102 °F
N
5.6
Wind Variable Wind from SW
Gusts 7.4 mph

Today
High -- | Low -- °F
--% Chance of Precip.
Yesterday
High -- | Low -- °F
Precip. -- in
Pressure 29.74 in
Visibility 6.2 miles
Clouds Scattered Clouds 12500 ft
Heat Index 102 °F
Dew Point 40 °F
Humidity 10%
Rainfall 0.00 in
Snow Depth Not available.
5:53 AM 7:51 PM
Waxing Crescent, 12% visible
SPECI YMOR 030420Z AUTO 33015KT 9999 // SCT125 42/09 Q1007
Pressure 29.74 in
Visibility 6.2 miles
Clouds Scattered Clouds 12500 ft
Heat Index 102 °F
Dew Point 40 °F
Humidity 10%
Rainfall 0.00 in
Snow Depth Not available.
5:53 AM 7:51 PM
Waxing Crescent, 12% visible
SPECI YMOR 030420Z AUTO 33015KT 9999 // SCT125 42/09 Q1007

10-Day Weather Forecast

×

Almanac

Astronomy

Dec. 03, 2016 Rise Set
Actual Time
Civil Twilight
Nautical Twilight
Astronomical Twilight
Moon
Length of Visible Light
Length of Day
Tomorrow will be .
, % of the Moon is Illuminated

Today's Extremes

Country Highs Country Lows

Community

WunderPhotos

Upload Photos

1,955,411 photos uploaded!

WunderBlog® & News

Nearby

Air Quality

  Air Quality AQ Index Pollutant
Not available.

Snow Depth

Station Depth Elevation

Earthquake Activity

City Distance Mag. Time & Date
Minimum magnitude displayed is 2.5.

Coastal Water Temperatures

Place Temperature

Stations

Nearby Weather Stations

Station Location Temp. Windchill Dew Point Humidity Wind Precip. Elev Updated Type